This is the latest recevied weather packets stored in our database for station/object AJ4FJ-13. If no packets are shown the sender has not sent any weather packets the latest 10 day(s).
| Time | Temp. | Humidity | Pressure | Rain* | Wind** | Luminosity | Snow |
|---|---|---|---|---|---|---|---|
| 1777569751 | 21.67° C | 54% | 1014 hPa | 0 mm | 1.34 m/s, 335° | - | - |
| 1777568831 | 21.67° C | 54% | 1014 hPa | 0 mm | 3.58 m/s, 334° | - | - |
| 1777565497 | 20° C | 62% | 1014 hPa | 1.02 mm | 3.13 m/s, 302° | - | - |
| 1777564055 | 19.44° C | 65% | 1013 hPa | 1.02 mm | 2.24 m/s, 19° | - | - |
| 1777563988 | 19.44° C | 65% | 1013 hPa | 1.02 mm | 2.24 m/s, 19° | - | - |
| 1777563105 | 18.89° C | 66% | 1013 hPa | 1.02 mm | 3.58 m/s, 4° | - | - |
| 1777563073 | 18.89° C | 66% | 1013 hPa | 1.02 mm | 3.58 m/s, 4° | - | - |
| 1777561912 | 18.33° C | 70% | 1013 hPa | 0 mm | 2.68 m/s, 356° | - | - |
| 1777561866 | 18.33° C | 70% | 1013 hPa | 0 mm | 2.68 m/s, 356° | - | - |
| 1777561258 | 17.78° C | 72% | 1013 hPa | 0 mm | 2.24 m/s, 343° | - | - |
| 1777559141 | 17.22° C | 78% | 1013 hPa | 0 mm | 4.02 m/s, 339° | - | - |
| 1777556402 | 16.11° C | 84% | 1013 hPa | 0 mm | 1.79 m/s, 356° | - | - |
| 1777554268 | 15.56° C | 88% | 1012 hPa | 0 mm | 2.24 m/s, 1° | - | - |
| 1777553558 | 16.11° C | 93% | 1012 hPa | 0 mm | 3.58 m/s, 337° | - | - |
| 1777553358 | 16.11° C | 93% | 1012 hPa | 0 mm | 3.58 m/s, 337° | - | - |
| 1777548824 | 14.44° C | 97% | 1010 hPa | 0 mm | 0 m/s | - | - |
| 1777547352 | 14.44° C | 97% | 1010 hPa | 0 mm | 1.34 m/s, 264° | - | - |
| 1777547307 | 14.44° C | 97% | 1010 hPa | 0 mm | 1.34 m/s, 264° | - | - |
| 1777546087 | 14.44° C | 97% | 1010 hPa | 0 mm | 0 m/s | - | - |
| 1777544043 | 14.44° C | 97% | 1010 hPa | 1.02 mm | 0 m/s | - | - |
| 1777543976 | 14.44° C | 97% | 1010 hPa | 1.02 mm | 0 m/s | - | - |
| 1777539268 | 14.44° C | 97% | 1011 hPa | 0 mm | 1.34 m/s, 318° | - | - |
| 1777539145 | 14.44° C | 97% | 1011 hPa | 0 mm | 1.34 m/s, 318° | - | - |
| 1777536808 | 15° C | 97% | 1011 hPa | 3.05 mm | 2.68 m/s, 23° | - | - |
| 1777536756 | 15° C | 97% | 1011 hPa | 3.05 mm | 2.68 m/s, 23° | - | - |
* Rain latest hour (hover to see other rain measurements)
** Current wind speed in m/s (hover to see current wind gust speed)